Time;durP1;ratioP1;P1;durP2;ratioP2;P2;SDS_P1;SDS_P2;PMS_P1;PMS_P2;Temp;Humidity;BMP_temperature;BMP_pressure;BME280_temperature;BME280_humidity;BME280_pressure;Samples;Min_cycle;Max_cycle;Signal;HPM_P1;HPM_P2
2023/08/10 00:01:22;;;;;;;11.10;6.90;;;14.10;99.90;;;;;;4934301;29;20040;-63
2023/08/10 00:03:49;;;;;;;10.10;6.25;;;14.10;99.90;;;;;;4932120;29;20062;-63
2023/08/10 00:06:15;;;;;;;9.07;6.20;;;14.10;99.90;;;;;;4933749;29;20052;-63
2023/08/10 00:08:42;;;;;;;9.75;5.60;;;14.10;99.90;;;;;;4932892;29;20044;-63
2023/08/10 00:11:09;;;;;;;8.57;5.72;;;14.10;99.90;;;;;;4932812;29;20040;-63
2023/08/10 00:13:37;;;;;;;9.73;5.60;;;14.10;99.90;;;;;;4931391;29;20127;-63
2023/08/10 00:16:04;;;;;;;7.47;5.60;;;14.10;99.90;;;;;;4927817;28;20446;-63
2023/08/10 00:18:30;;;;;;;6.10;4.70;;;14.10;99.90;;;;;;4932959;29;20127;-63
2023/08/10 00:20:57;;;;;;;5.55;4.47;;;14.10;99.90;;;;;;4933460;29;20052;-63
2023/08/10 00:23:24;;;;;;;9.23;5.85;;;14.10;99.90;;;;;;4924334;29;20051;-61
2023/08/10 00:25:51;;;;;;;8.18;5.60;;;14.10;99.90;;;;;;4934117;29;20054;-63
2023/08/10 00:28:18;;;;;;;8.90;4.63;;;14.10;99.90;;;;;;4932689;29;20498;-63
2023/08/10 00:30:44;;;;;;;6.10;4.75;;;14.10;99.90;;;;;;4932594;29;20067;-63
2023/08/10 00:33:11;;;;;;;8.40;4.68;;;14.10;99.90;;;;;;4947447;28;20087;-63
2023/08/10 00:35:54;;;;;;;7.50;5.43;;;14.10;99.90;;;;;;4950557;28;20062;-63
2023/08/10 00:38:20;;;;;;;10.27;6.90;;;14.10;99.90;;;;;;4942813;28;20058;-62
2023/08/10 00:40:47;;;;;;;8.70;7.15;;;14.20;99.90;;;;;;4936051;29;20047;-62
2023/08/10 00:43:14;;;;;;;12.25;7.85;;;14.20;99.90;;;;;;4951529;28;20048;-63
2023/08/10 00:45:41;;;;;;;10.43;7.45;;;14.10;99.90;;;;;;4952128;28;20048;-63
2023/08/10 00:48:08;;;;;;;14.85;8.63;;;14.10;99.90;;;;;;4928822;29;20043;-62
2023/08/10 00:50:36;;;;;;;11.77;8.38;;;14.20;99.90;;;;;;4936189;29;20681;-63
2023/08/10 00:53:03;;;;;;;13.15;9.38;;;14.10;99.90;;;;;;4951094;28;20044;-62
2023/08/10 00:55:30;;;;;;;13.75;8.65;;;14.10;99.90;;;;;;4937449;29;20050;-63
2023/08/10 00:57:57;;;;;;;14.98;7.80;;;14.10;99.90;;;;;;4948790;28;20046;-62
2023/08/10 01:00:24;;;;;;;12.32;7.50;;;14.10;99.90;;;;;;4937163;29;20054;-63
2023/08/10 01:02:51;;;;;;;9.63;6.45;;;14.10;99.90;;;;;;4951226;28;20047;-63
2023/08/10 01:05:18;;;;;;;7.78;5.82;;;14.10;99.90;;;;;;4935730;29;20058;-63
2023/08/10 01:08:15;;;;;;;7.55;5.30;;;14.10;99.90;;;;;;4936821;29;20046;-63
2023/08/10 01:11:19;;;;;;;5.38;4.03;;;14.10;99.90;;;;;;4947373;28;20054;-62
2023/08/10 01:14:03;;;;;;;6.50;3.80;;;14.10;99.90;;;;;;4930658;29;20036;-63
2023/08/10 01:16:31;;;;;;;5.72;4.20;;;14.10;99.90;;;;;;4937151;29;20051;-63
2023/08/10 01:18:59;;;;;;;7.45;4.15;;;14.10;99.90;;;;;;4949021;28;20048;-63
2023/08/10 01:21:50;;;;;;;7.47;3.95;;;14.10;99.90;;;;;;4937086;29;20040;-63
2023/08/10 01:24:25;;;;;;;332.27;24.02;;;14.10;99.90;;;;;;4949530;28;20044;-61
2023/08/10 01:26:55;;;;;;;47.65;7.35;;;14.10;99.90;;;;;;4936601;29;20054;-63
2023/08/10 01:29:28;;;;;;;11.88;5.45;;;14.10;99.90;;;;;;4951163;28;20477;-63
2023/08/10 01:31:54;;;;;;;16.20;6.53;;;14.10;99.90;;;;;;4936708;29;20044;-63
2023/08/10 01:34:21;;;;;;;322.20;24.65;;;14.10;99.90;;;;;;4945950;28;20039;-63
2023/08/10 01:36:48;;;;;;;43.67;8.30;;;14.10;99.90;;;;;;4930760;29;20052;-63
2023/08/10 01:39:15;;;;;;;56.47;10.35;;;14.00;99.90;;;;;;4951486;29;20047;-63
2023/08/10 01:41:42;;;;;;;109.82;13.38;;;14.00;99.90;;;;;;4949491;28;20688;-63
2023/08/10 01:44:09;;;;;;;21.48;7.80;;;14.00;99.90;;;;;;4934837;29;20054;-62
2023/08/10 01:46:40;;;;;;;11.88;7.78;;;14.00;99.90;;;;;;4949697;28;20040;-63
2023/08/10 01:49:10;;;;;;;12.13;8.07;;;14.00;99.90;;;;;;4934935;29;20055;-63
2023/08/10 01:51:39;;;;;;;10.50;7.85;;;14.00;99.90;;;;;;4945723;28;20044;-63
2023/08/10 01:54:08;;;;;;;10.80;7.57;;;14.10;99.90;;;;;;4935766;29;20075;-62
2023/08/10 01:56:35;;;;;;;8.18;7.00;;;14.10;99.90;;;;;;4949847;28;20071;-63
2023/08/10 01:59:02;;;;;;;10.07;7.22;;;14.10;99.90;;;;;;4950671;29;20062;-63
2023/08/10 02:01:28;;;;;;;10.30;6.93;;;14.10;99.90;;;;;;4936173;29;20047;-63
2023/08/10 02:03:57;;;;;;;10.25;6.57;;;14.10;99.90;;;;;;4948473;28;20058;-63
2023/08/10 02:06:23;;;;;;;18.02;8.77;;;14.10;99.90;;;;;;4934732;29;20134;-61
2023/08/10 02:08:50;;;;;;;11.15;7.10;;;14.10;99.90;;;;;;4935204;29;20040;-63
2023/08/10 02:11:17;;;;;;;9.68;6.93;;;14.10;99.90;;;;;;4936046;29;20063;-63
2023/08/10 02:13:44;;;;;;;11.68;7.13;;;14.10;99.90;;;;;;4931715;29;20047;-62
2023/08/10 02:16:11;;;;;;;9.80;7.15;;;14.00;99.90;;;;;;4950484;28;20661;-63
2023/08/10 02:18:39;;;;;;;10.95;6.85;;;14.10;99.90;;;;;;4948924;28;20133;-61
2023/08/10 02:21:06;;;;;;;8.27;6.18;;;14.10;99.90;;;;;;4950180;29;20052;-62
2023/08/10 02:23:35;;;;;;;8.10;6.38;;;14.10;99.90;;;;;;4947941;28;20039;-63
2023/08/10 02:26:01;;;;;;;8.73;6.57;;;14.10;99.90;;;;;;4932440;29;20079;-62
2023/08/10 02:28:28;;;;;;;204.73;15.10;;;14.10;99.90;;;;;;4935298;29;20042;-63
2023/08/10 02:30:55;;;;;;;41.38;7.25;;;14.10;99.90;;;;;;4933967;29;20040;-62
2023/08/10 02:33:22;;;;;;;7.80;6.30;;;14.10;99.90;;;;;;4944179;28;20051;-63
2023/08/10 02:35:49;;;;;;;9.25;6.45;;;14.10;99.90;;;;;;4934361;29;20099;-63
2023/08/10 02:38:15;;;;;;;9.18;6.72;;;14.00;99.90;;;;;;4949917;28;20040;-62
2023/08/10 02:40:45;;;;;;;12.40;7.28;;;14.00;99.90;;;;;;4950073;28;20055;-63
2023/08/10 02:43:12;;;;;;;11.85;7.70;;;14.00;99.90;;;;;;4946657;28;20090;-63
2023/08/10 02:45:39;;;;;;;15.95;8.32;;;14.00;99.90;;;;;;4934162;29;20094;-62
2023/08/10 02:48:06;;;;;;;17.92;8.40;;;14.00;99.90;;;;;;4950075;28;20120;-63
2023/08/10 02:50:33;;;;;;;39.13;8.27;;;14.00;99.90;;;;;;4944878;28;20044;-63
2023/08/10 02:52:59;;;;;;;10.52;7.03;;;14.00;99.90;;;;;;4949231;28;20044;-63
2023/08/10 02:55:27;;;;;;;66.43;11.13;;;14.00;99.90;;;;;;4948135;28;20048;-62
2023/08/10 02:57:54;;;;;;;13.75;7.03;;;14.00;99.90;;;;;;4934811;29;20114;-62
2023/08/10 03:00:20;;;;;;;47.60;9.32;;;13.90;99.90;;;;;;4934699;29;20040;-63
2023/08/10 03:02:50;;;;;;;70.55;10.98;;;13.90;99.90;;;;;;4948764;28;20051;-63
2023/08/10 03:05:20;;;;;;;53.13;9.07;;;13.90;99.90;;;;;;4933671;29;20040;-63
2023/08/10 03:07:48;;;;;;;11.73;8.40;;;14.00;99.90;;;;;;4946570;28;20074;-63
2023/08/10 03:10:15;;;;;;;11.18;8.10;;;14.00;99.90;;;;;;4928037;29;20043;-63
2023/08/10 03:12:42;;;;;;;13.18;8.82;;;14.00;99.90;;;;;;4947616;28;20143;-63
2023/08/10 03:15:11;;;;;;;12.32;8.55;;;14.00;99.90;;;;;;4933326;29;20099;-63
2023/08/10 03:17:39;;;;;;;12.10;8.70;;;14.00;99.90;;;;;;4927719;29;20529;-63
2023/08/10 03:20:12;;;;;;;12.15;8.60;;;14.00;99.90;;;;;;4932985;29;20057;-63
2023/08/10 03:22:40;;;;;;;23.92;9.45;;;14.00;99.90;;;;;;4948586;28;20039;-63
2023/08/10 03:25:10;;;;;;;12.80;8.00;;;14.00;99.90;;;;;;4934841;29;20083;-62
2023/08/10 03:27:37;;;;;;;14.23;7.45;;;14.00;99.90;;;;;;4948095;28;20098;-62
2023/08/10 03:30:07;;;;;;;8.40;6.95;;;14.00;99.90;;;;;;4943546;28;20046;-63
2023/08/10 03:32:35;;;;;;;8.95;7.00;;;14.00;99.90;;;;;;4941661;29;20063;-63
2023/08/10 03:35:02;;;;;;;9.30;7.35;;;14.00;99.90;;;;;;4917728;29;20051;-63
2023/08/10 03:37:29;;;;;;;8.52;7.18;;;14.00;99.90;;;;;;4933213;29;20573;-61
2023/08/10 03:39:56;;;;;;;;;;;14.00;99.90;;;;;;4942012;28;20501;-63
2023/08/10 03:42:23;;;;;;;13.82;7.78;;;13.90;99.90;;;;;;4940732;28;20010;-63
2023/08/10 03:44:54;;;;;;;9.30;8.10;;;14.00;99.90;;;;;;4922473;29;20507;-62
2023/08/10 03:47:22;;;;;;;11.80;8.25;;;14.00;99.90;;;;;;4930698;29;20059;-63
2023/08/10 03:49:55;;;;;;;9.95;7.30;;;14.00;99.90;;;;;;4932525;29;20054;-63
2023/08/10 03:52:23;;;;;;;7.10;6.28;;;14.00;99.90;;;;;;4934063;29;20516;-63
2023/08/10 03:54:50;;;;;;;7.05;5.95;;;14.00;99.90;;;;;;4934325;29;20154;-63
2023/08/10 03:57:17;;;;;;;7.53;5.97;;;14.00;99.90;;;;;;4937760;28;20048;-63
2023/08/10 03:59:46;;;;;;;7.50;5.70;;;14.00;99.90;;;;;;4928149;29;20075;-63
2023/08/10 04:02:13;;;;;;;8.27;5.57;;;14.00;99.90;;;;;;4948265;28;20134;-63
2023/08/10 04:04:40;;;;;;;10.32;5.85;;;14.00;99.90;;;;;;4947299;28;20138;-63
2023/08/10 04:07:07;;;;;;;7.20;5.95;;;14.00;99.90;;;;;;4926084;29;20505;-63
2023/08/10 04:09:34;;;;;;;7.72;6.20;;;14.00;99.90;;;;;;4933855;29;20048;-63
2023/08/10 04:12:01;;;;;;;7.22;5.95;;;14.00;99.90;;;;;;4944614;28;20509;-63
2023/08/10 04:14:28;;;;;;;18.77;6.50;;;14.00;99.90;;;;;;4952473;28;20110;-63
2023/08/10 04:16:55;;;;;;;13.48;6.75;;;14.00;99.90;;;;;;4952870;28;20039;-62
2023/08/10 04:19:23;;;;;;;12.10;6.10;;;14.00;99.90;;;;;;4936898;29;20725;-62
2023/08/10 04:21:50;;;;;;;13.63;7.78;;;14.00;99.90;;;;;;4938142;29;20513;-63
2023/08/10 04:24:17;;;;;;;8.07;6.53;;;14.00;99.90;;;;;;4934924;29;20473;-63
2023/08/10 04:26:45;;;;;;;17.90;8.88;;;14.00;99.90;;;;;;4937961;29;20046;-63
2023/08/10 04:29:12;;;;;;;16.55;6.55;;;14.00;99.90;;;;;;4937133;29;20127;-63
2023/08/10 04:31:40;;;;;;;322.85;24.30;;;14.00;99.90;;;;;;4933466;29;20130;-63
2023/08/10 04:34:07;;;;;;;527.85;34.65;;;14.00;99.90;;;;;;4930931;29;20058;-63
2023/08/10 04:36:34;;;;;;;101.50;11.68;;;14.00;99.90;;;;;;4937899;29;20497;-63
2023/08/10 04:39:01;;;;;;;65.90;11.07;;;13.90;99.90;;;;;;4937560;29;20062;-63
2023/08/10 04:41:28;;;;;;;10.90;8.00;;;14.00;99.90;;;;;;4926069;29;20127;-63
2023/08/10 04:43:55;;;;;;;17.75;10.52;;;14.00;99.90;;;;;;4935627;29;20043;-63
2023/08/10 04:46:22;;;;;;;20.58;10.27;;;14.00;99.90;;;;;;4937335;29;20051;-63
2023/08/10 04:48:48;;;;;;;17.48;9.95;;;14.00;99.90;;;;;;4937486;29;20393;-63
2023/08/10 04:51:15;;;;;;;24.83;11.25;;;14.00;99.90;;;;;;4937348;29;20054;-63
2023/08/10 04:53:42;;;;;;;16.42;10.75;;;14.00;99.90;;;;;;4933065;29;20377;-62
2023/08/10 04:56:09;;;;;;;13.38;9.57;;;14.10;99.90;;;;;;4937230;29;20440;-63
2023/08/10 04:58:36;;;;;;;15.73;10.43;;;14.10;99.90;;;;;;4936126;29;20051;-62
2023/08/10 05:01:02;;;;;;;13.43;10.13;;;14.10;99.90;;;;;;4930043;29;20386;-63
2023/08/10 05:03:29;;;;;;;12.40;9.65;;;14.10;99.90;;;;;;4936772;29;20054;-61
2023/08/10 05:05:56;;;;;;;12.25;9.32;;;14.10;99.90;;;;;;4947214;28;20048;-63
2023/08/10 05:08:24;;;;;;;14.90;10.07;;;14.20;99.90;;;;;;4934290;29;20073;-63
2023/08/10 05:10:51;;;;;;;20.05;9.77;;;14.20;99.90;;;;;;4934989;29;20115;-62
2023/08/10 05:13:18;;;;;;;13.60;10.00;;;14.30;99.90;;;;;;4936691;29;20058;-63
2023/08/10 05:15:45;;;;;;;14.13;10.00;;;14.30;99.90;;;;;;4932511;29;20067;-63
2023/08/10 05:18:12;;;;;;;14.50;9.35;;;14.30;99.90;;;;;;4934276;29;20055;-62
2023/08/10 05:20:38;;;;;;;10.75;8.50;;;14.30;99.90;;;;;;4936856;29;20405;-63
2023/08/10 05:23:05;;;;;;;11.50;8.52;;;14.30;99.90;;;;;;4936523;29;20054;-62
2023/08/10 05:25:32;;;;;;;14.55;8.73;;;14.30;99.90;;;;;;4924658;29;20575;-63
2023/08/10 05:27:59;;;;;;;14.38;9.48;;;14.30;99.90;;;;;;4935477;29;20044;-62
2023/08/10 05:30:25;;;;;;;19.55;10.38;;;14.40;99.90;;;;;;4927463;29;20059;-63
2023/08/10 05:32:52;;;;;;;13.25;9.50;;;14.40;99.90;;;;;;4934145;29;20075;-63
2023/08/10 05:35:20;;;;;;;12.45;9.45;;;14.50;99.90;;;;;;4934913;29;20493;-62
2023/08/10 05:37:47;;;;;;;16.25;9.35;;;14.50;99.90;;;;;;4934440;29;20052;-62
2023/08/10 05:40:14;;;;;;;11.10;8.38;;;14.60;99.90;;;;;;4950202;28;20062;-63
2023/08/10 05:42:42;;;;;;;12.13;9.13;;;14.60;99.90;;;;;;4935625;29;20048;-63
2023/08/10 05:45:14;;;;;;;66.97;14.50;;;14.60;99.90;;;;;;4925835;29;20075;-63
2023/08/10 05:47:43;;;;;;;12.80;7.97;;;14.70;99.90;;;;;;4925082;29;20052;-62
2023/08/10 05:50:10;;;;;;;9.85;7.05;;;14.70;99.90;;;;;;4931379;29;20082;-63
2023/08/10 05:52:37;;;;;;;15.38;6.47;;;14.60;99.90;;;;;;4934334;29;20051;-62
2023/08/10 05:55:04;;;;;;;23.65;7.50;;;14.60;99.90;;;;;;4935662;29;20126;-63
2023/08/10 05:57:31;;;;;;;10.55;6.10;;;14.70;99.90;;;;;;4933787;29;20127;-63
2023/08/10 05:59:58;;;;;;;7.95;5.53;;;14.70;99.90;;;;;;4935889;29;20055;-63
2023/08/10 06:02:25;;;;;;;16.10;10.07;;;14.80;99.90;;;;;;4935030;29;20517;-63
2023/08/10 06:04:52;;;;;;;12.82;9.00;;;14.90;99.90;;;;;;4935848;29;20122;-62
2023/08/10 06:07:19;;;;;;;12.55;8.23;;;14.90;99.90;;;;;;4927110;29;20040;-63
2023/08/10 06:09:46;;;;;;;10.00;6.47;;;15.10;99.90;;;;;;4935718;29;20044;-61
2023/08/10 06:12:12;;;;;;;6.35;5.30;;;15.20;99.90;;;;;;4935193;29;20054;-62
2023/08/10 06:14:39;;;;;;;7.68;5.75;;;15.20;99.90;;;;;;4934231;29;20363;-63
2023/08/10 06:17:06;;;;;;;6.25;5.38;;;15.20;99.90;;;;;;4935502;29;20054;-63
2023/08/10 06:19:34;;;;;;;6.05;4.80;;;15.20;99.90;;;;;;4933848;29;20162;-63
2023/08/10 06:22:01;;;;;;;5.75;4.20;;;15.20;99.90;;;;;;4935268;29;20118;-63
2023/08/10 06:24:29;;;;;;;8.25;5.57;;;15.20;99.90;;;;;;4933969;29;20050;-63
2023/08/10 06:26:57;;;;;;;15.43;6.72;;;15.10;99.90;;;;;;4933756;29;20171;-63
2023/08/10 06:29:23;;;;;;;9.07;6.22;;;15.10;99.90;;;;;;4925945;29;20048;-63
2023/08/10 06:31:53;;;;;;;8.77;5.70;;;15.00;99.90;;;;;;4935139;29;20040;-62
2023/08/10 06:34:20;;;;;;;8.90;6.40;;;15.00;99.90;;;;;;4927638;29;20045;-63
2023/08/10 06:36:46;;;;;;;11.38;7.75;;;15.00;99.90;;;;;;4929365;29;20032;-63
2023/08/10 06:39:13;;;;;;;14.20;9.60;;;15.10;99.90;;;;;;4933632;29;20581;-63
2023/08/10 06:41:40;;;;;;;9.63;6.68;;;15.20;99.90;;;;;;4932884;29;20047;-62
2023/08/10 06:44:08;;;;;;;9.55;5.72;;;15.30;99.90;;;;;;4933083;29;20051;-63
2023/08/10 06:46:35;;;;;;;6.57;5.32;;;15.40;99.90;;;;;;4934602;29;20039;-63
2023/08/10 06:49:02;;;;;;;8.68;5.72;;;15.70;99.90;;;;;;4934547;29;20048;-63
2023/08/10 06:51:29;;;;;;;5.72;4.50;;;16.00;99.90;;;;;;4934343;29;20050;-63
2023/08/10 06:53:56;;;;;;;4.85;4.32;;;16.00;99.90;;;;;;4932623;29;20405;-63
2023/08/10 06:56:22;;;;;;;6.68;4.70;;;16.10;99.90;;;;;;4934502;29;20063;-63
2023/08/10 06:58:49;;;;;;;7.43;5.03;;;16.00;99.90;;;;;;4934153;29;20039;-63
2023/08/10 07:01:19;;;;;;;7.22;5.00;;;16.00;99.90;;;;;;4933323;29;20050;-63
2023/08/10 07:03:46;;;;;;;5.90;4.82;;;16.00;99.90;;;;;;4933945;29;20048;-64
2023/08/10 07:06:13;;;;;;;7.70;4.68;;;15.90;99.90;;;;;;4934336;29;20058;-63
2023/08/10 07:08:40;;;;;;;8.00;5.28;;;16.00;99.90;;;;;;4933959;29;20047;-61
2023/08/10 07:11:07;;;;;;;7.38;4.68;;;16.10;99.90;;;;;;4933166;29;20112;-63
2023/08/10 07:13:34;;;;;;;10.93;4.72;;;16.30;99.90;;;;;;4933499;29;20057;-63
2023/08/10 07:16:01;;;;;;;4.50;4.00;;;16.60;99.90;;;;;;4934180;29;20042;-63
2023/08/10 07:18:28;;;;;;;6.95;4.50;;;16.60;99.90;;;;;;4934004;29;20052;-63
2023/08/10 07:20:55;;;;;;;11.15;4.70;;;16.50;99.90;;;;;;4932758;29;20047;-63
2023/08/10 07:23:22;;;;;;;7.38;4.55;;;16.40;99.90;;;;;;4933340;29;20070;-64
2023/08/10 07:25:54;;;;;;;4.28;3.28;;;16.50;99.90;;;;;;4933716;29;20056;-63
2023/08/10 07:28:23;;;;;;;4.60;2.55;;;16.70;99.90;;;;;;4933846;29;20051;-62
2023/08/10 07:30:50;;;;;;;4.10;2.80;;;16.70;99.90;;;;;;4932602;29;20113;-63
2023/08/10 07:33:17;;;;;;;3.45;2.95;;;16.80;99.90;;;;;;4933532;29;20047;-64
2023/08/10 07:35:45;;;;;;;6.88;3.47;;;16.70;99.90;;;;;;4930760;29;20054;-63
2023/08/10 07:38:13;;;;;;;7.28;4.20;;;16.80;99.90;;;;;;4933991;29;20039;-62
2023/08/10 07:40:40;;;;;;;5.07;3.60;;;16.90;99.90;;;;;;4932734;29;20361;-64
2023/08/10 07:43:07;;;;;;;5.32;4.00;;;16.90;99.90;;;;;;4933764;29;20055;-63
2023/08/10 07:45:34;;;;;;;5.43;4.00;;;16.90;99.90;;;;;;4931962;29;20126;-63
2023/08/10 07:48:01;;;;;;;5.22;3.25;;;16.80;99.90;;;;;;4930782;29;20426;-63
2023/08/10 07:50:28;;;;;;;5.57;3.72;;;16.70;99.90;;;;;;4924128;29;20047;-63
2023/08/10 07:52:55;;;;;;;4.07;3.55;;;16.60;99.90;;;;;;4932760;29;20433;-63
2023/08/10 07:55:21;;;;;;;3.50;3.05;;;16.60;99.90;;;;;;4932945;29;20047;-63
2023/08/10 07:57:49;;;;;;;3.53;2.70;;;16.80;99.90;;;;;;4927074;29;20044;-62
2023/08/10 08:00:16;;;;;;;3.92;2.70;;;17.00;99.90;;;;;;4928274;29;20043;-63
2023/08/10 08:02:43;;;;;;;;;;;17.10;99.90;;;;;;4932761;29;20524;-64
2023/08/10 08:05:10;;;;;;;2.72;2.53;;;17.10;99.90;;;;;;4932874;29;19929;-63
2023/08/10 08:07:37;;;;;;;3.50;2.78;;;17.00;99.90;;;;;;4933261;29;20040;-62
2023/08/10 08:10:04;;;;;;;6.25;3.83;;;17.10;99.90;;;;;;4932027;29;20050;-63
2023/08/10 08:12:32;;;;;;;4.93;2.65;;;17.40;99.90;;;;;;4933128;29;20119;-63
2023/08/10 08:14:59;;;;;;;4.25;2.28;;;17.80;99.90;;;;;;4933403;29;20489;-62
2023/08/10 08:17:25;;;;;;;4.03;2.80;;;17.80;99.90;;;;;;4933493;29;20485;-63
2023/08/10 08:19:55;;;;;;;4.53;2.55;;;17.70;99.90;;;;;;4932345;28;20424;-63
2023/08/10 08:22:23;;;;;;;3.00;2.35;;;17.50;99.90;;;;;;4930500;29;20056;-63
2023/08/10 08:24:51;;;;;;;;;;;17.30;99.90;;;;;;4932700;29;20047;-64
2023/08/10 08:27:18;;;;;;;5.25;3.28;;;17.20;99.90;;;;;;4933656;29;19929;-63
2023/08/10 08:29:45;;;;;;;;;;;17.00;99.90;;;;;;4933568;29;20048;-63
2023/08/10 08:32:12;;;;;;;5.95;3.00;;;16.90;99.90;;;;;;4933901;29;20364;-62
2023/08/10 08:34:58;;;;;;;3.30;2.72;;;17.00;99.90;;;;;;4920233;29;20110;-64
2023/08/10 08:37:25;;;;;;;5.03;2.92;;;17.50;99.90;;;;;;4933439;29;20415;-63
2023/08/10 08:39:52;;;;;;;3.40;2.72;;;17.90;99.90;;;;;;4933237;29;20136;-63
2023/08/10 08:42:19;;;;;;;5.95;2.90;;;18.00;99.90;;;;;;4933544;29;20078;-62
2023/08/10 08:44:46;;;;;;;;;;;18.10;99.90;;;;;;4931656;29;20406;-64
2023/08/10 08:47:13;;;;;;;4.53;3.05;;;18.00;99.90;;;;;;4947916;28;19937;-64
2023/08/10 08:49:40;;;;;;;;;;;17.90;99.90;;;;;;4922740;29;20044;-64
2023/08/10 08:52:06;;;;;;;5.53;2.70;;;17.90;99.90;;;;;;4933366;29;19923;-63
2023/08/10 08:54:34;;;;;;;;;;;17.90;99.90;;;;;;4932180;29;20067;-64
2023/08/10 08:57:00;;;;;;;3.70;2.80;;;17.80;99.90;;;;;;4933585;29;20384;-64
2023/08/10 08:59:27;;;;;;;5.05;2.63;;;17.80;99.90;;;;;;4932083;29;20044;-63
2023/08/10 09:01:55;;;;;;;6.72;2.80;;;17.70;99.90;;;;;;4929263;29;20048;-64
2023/08/10 09:04:27;;;;;;;7.80;3.13;;;17.70;99.90;;;;;;4936328;29;20039;-63
2023/08/10 09:06:54;;;;;;;6.07;3.03;;;17.60;99.90;;;;;;4936961;29;20058;-63
2023/08/10 09:09:22;;;;;;;6.38;3.00;;;18.00;99.90;;;;;;4934298;29;20054;-62
2023/08/10 09:11:49;;;;;;;5.00;2.95;;;18.20;99.90;;;;;;4936375;29;20079;-63
2023/08/10 09:14:15;;;;;;;4.65;2.92;;;18.40;99.90;;;;;;4935893;29;20048;-63
2023/08/10 09:16:45;;;;;;;6.57;2.92;;;18.50;99.90;;;;;;4934005;29;20047;-63
2023/08/10 09:19:12;;;;;;;8.60;2.92;;;18.50;99.90;;;;;;4926078;29;20043;-64
2023/08/10 09:21:38;;;;;;;;;;;18.60;99.90;;;;;;4937012;29;20469;-64
2023/08/10 09:24:09;;;;;;;6.82;2.20;;;18.60;99.90;;;;;;4935653;29;19923;-63
2023/08/10 09:26:38;;;;;;;6.32;3.08;;;18.60;99.90;;;;;;4929618;29;20044;-64
2023/08/10 09:29:05;;;;;;;9.23;2.80;;;18.80;99.90;;;;;;4934952;29;20401;-62
2023/08/10 09:31:32;;;;;;;6.43;2.28;;;18.70;99.90;;;;;;4936155;29;20042;-62
2023/08/10 09:33:59;;;;;;;2.90;2.20;;;18.60;99.90;;;;;;4935560;29;20095;-64
2023/08/10 09:36:29;;;;;;;3.13;2.30;;;18.60;99.90;;;;;;4934382;29;20051;-64
2023/08/10 09:38:56;;;;;;;4.43;2.60;;;18.60;99.90;;;;;;4927146;29;20099;-63
2023/08/10 09:41:28;;;;;;;3.33;2.42;;;18.70;99.90;;;;;;4936742;29;20051;-62
2023/08/10 09:43:55;;;;;;;5.80;2.10;;;18.80;99.90;;;;;;4935180;29;20043;-64
2023/08/10 09:46:23;;;;;;;3.30;2.33;;;18.80;99.90;;;;;;4935904;29;20058;-64
2023/08/10 09:48:50;;;;;;;4.25;1.90;;;18.80;99.90;;;;;;4930877;29;20479;-63
2023/08/10 09:51:17;;;;;;;6.13;2.28;;;19.10;99.90;;;;;;4935845;29;20091;-64
2023/08/10 09:53:44;;;;;;;3.60;1.92;;;19.40;99.90;;;;;;4934481;29;20048;-64
2023/08/10 09:56:11;;;;;;;5.65;2.03;;;19.50;99.90;;;;;;4934920;29;20070;-63
2023/08/10 09:58:41;;;;;;;3.60;1.65;;;19.50;99.90;;;;;;4934527;29;20048;-64
2023/08/10 10:01:08;;;;;;;5.82;2.50;;;19.50;99.90;;;;;;4935952;29;20130;-64
2023/08/10 10:03:40;;;;;;;4.28;1.70;;;19.50;99.90;;;;;;4929758;29;20480;-64
2023/08/10 10:06:08;;;;;;;3.55;1.60;;;19.50;99.90;;;;;;4935640;29;20054;-63
2023/08/10 10:08:36;;;;;;;;;;;19.60;99.90;;;;;;4934721;29;20055;-64
2023/08/10 10:11:11;;;;;;;14.00;2.65;;;19.60;99.90;;;;;;4935695;29;19926;-63
2023/08/10 10:13:40;;;;;;;2.88;2.10;;;19.60;99.90;;;;;;4927951;29;20043;-63
2023/08/10 10:16:08;;;;;;;3.83;2.50;;;19.90;99.90;;;;;;4935628;29;20048;-64
2023/08/10 10:18:36;;;;;;;6.75;2.00;;;20.00;99.90;;;;;;4933326;29;20503;-64
2023/08/10 10:21:03;;;;;;;2.28;2.03;;;20.10;99.90;;;;;;4935356;29;20051;-64
2023/08/10 10:23:30;;;;;;;;;;;20.10;99.90;;;;;;4934673;29;20067;-63
2023/08/10 10:26:01;;;;;;;5.50;2.45;;;20.20;99.90;;;;;;4935545;29;20277;-63
2023/08/10 10:28:31;;;;;;;3.88;1.98;;;20.40;99.90;;;;;;4929969;29;20120;-62
2023/08/10 10:31:04;;;;;;;3.00;2.33;;;20.30;99.90;;;;;;4934433;29;20114;-61
2023/08/10 10:33:32;;;;;;;3.08;1.70;;;20.00;99.90;;;;;;4934154;29;20122;-63
2023/08/10 10:36:07;;;;;;;7.63;2.00;;;19.70;99.90;;;;;;4935275;29;20036;-62
2023/08/10 10:38:47;;;;;;;2.22;1.83;;;19.60;99.90;;;;;;4920029;29;20382;-62
2023/08/10 10:41:17;;;;;;;3.08;1.90;;;19.50;99.90;;;;;;4928983;29;20048;-63
2023/08/10 10:43:44;;;;;;;2.63;2.05;;;19.70;99.90;;;;;;4933978;29;20497;-63
2023/08/10 10:46:32;;;;;;;3.90;2.10;;;20.00;99.90;;;;;;4933927;29;20468;-63
2023/08/10 10:49:04;;;;;;;3.08;2.25;;;20.50;99.90;;;;;;4934769;29;20086;-63
2023/08/10 10:51:31;;;;;;;4.25;2.20;;;20.70;99.90;;;;;;4933913;29;20048;-63
2023/08/10 10:53:58;;;;;;;5.85;2.47;;;20.80;99.90;;;;;;4932665;29;20048;-63
2023/08/10 10:56:25;;;;;;;4.88;1.90;;;20.80;99.90;;;;;;4934692;29;20130;-63
2023/08/10 10:58:52;;;;;;;3.78;1.95;;;20.80;99.90;;;;;;4928577;29;20401;-63
2023/08/10 11:01:20;;;;;;;;;;;20.90;99.90;;;;;;4934907;29;20054;-63
2023/08/10 11:03:52;;;;;;;9.20;2.20;;;21.10;99.90;;;;;;4932931;29;19923;-63
2023/08/10 11:06:20;;;;;;;9.70;2.47;;;21.20;99.90;;;;;;4926264;29;20697;-62
2023/08/10 11:08:55;;;;;;;3.28;2.05;;;21.20;99.90;;;;;;4934252;29;20082;-64
2023/08/10 11:11:22;;;;;;;4.47;2.33;;;21.10;99.90;;;;;;4933813;29;20059;-62
2023/08/10 11:13:51;;;;;;;4.57;2.35;;;21.20;99.90;;;;;;4933919;29;20047;-63
2023/08/10 11:16:19;;;;;;;2.30;1.80;;;21.40;99.90;;;;;;4933655;29;20122;-63
2023/08/10 11:18:46;;;;;;;2.33;1.95;;;21.40;99.90;;;;;;4934140;29;20390;-63
2023/08/10 11:21:14;;;;;;;7.20;2.15;;;21.30;99.90;;;;;;4933014;29;20055;-64
2023/08/10 11:23:41;;;;;;;2.50;2.03;;;21.40;99.90;;;;;;4933604;29;20040;-63
2023/08/10 11:26:08;;;;;;;5.00;2.17;;;21.50;99.90;;;;;;4933514;29;20046;-64
2023/08/10 11:28:36;;;;;;;;;;;21.70;99.90;;;;;;4933919;29;20048;-64
2023/08/10 11:31:07;;;;;;;4.68;1.92;;;21.70;99.90;;;;;;4932397;29;19929;-63
2023/08/10 11:33:35;;;;;;;3.53;2.35;;;21.60;99.90;;;;;;4933916;29;20043;-63
2023/08/10 11:36:03;;;;;;;3.38;2.20;;;21.90;99.90;;;;;;4933606;29;20062;-63
2023/08/10 11:38:40;;;;;;;;;;;21.90;99.90;;;;;;4933276;29;20394;-64
2023/08/10 11:41:07;;;;;;;2.97;1.85;;;22.00;99.90;;;;;;4926317;29;19939;-63
2023/08/10 11:43:34;;;;;;;4.60;2.05;;;21.90;99.90;;;;;;4933515;29;20048;-63
2023/08/10 11:46:01;;;;;;;;;;;21.80;99.90;;;;;;4934199;29;20146;-63
2023/08/10 11:48:29;;;;;;;5.30;2.42;;;21.60;99.90;;;;;;4929441;29;20002;-63
2023/08/10 11:51:00;;;;;;;3.42;2.30;;;21.60;99.90;;;;;;4931963;29;20512;-63
2023/08/10 11:53:36;;;;;;;3.80;2.38;;;21.50;99.90;;;;;;4933313;29;20036;-63
2023/08/10 11:56:07;;;;;;;4.47;2.50;;;21.50;99.90;;;;;;4933591;29;20051;-63
2023/08/10 11:58:34;;;;;;;3.65;2.65;;;21.40;99.90;;;;;;4928217;29;20528;-63
2023/08/10 12:01:04;;;;;;;3.25;2.63;;;21.50;99.90;;;;;;4931346;29;20058;-62
2023/08/10 12:03:31;;;;;;;2.70;2.20;;;21.50;99.90;;;;;;4933705;29;20051;-64
2023/08/10 12:06:07;;;;;;;4.50;2.42;;;21.40;99.90;;;;;;4931696;29;20075;-63
2023/08/10 12:08:38;;;;;;;5.65;2.58;;;21.20;99.90;;;;;;4933425;29;20099;-63
2023/08/10 12:11:06;;;;;;;4.20;2.08;;;21.30;99.90;;;;;;4933343;29;20051;-63
2023/08/10 12:13:48;;;;;;;2.78;1.95;;;21.50;99.90;;;;;;4931654;29;20099;-63
2023/08/10 12:16:17;;;;;;;2.22;2.00;;;21.90;99.90;;;;;;4926631;29;20078;-63
2023/08/10 12:18:45;;;;;;;4.85;2.35;;;22.10;99.90;;;;;;4932567;29;20040;-63
2023/08/10 12:21:12;;;;;;;4.65;2.50;;;22.10;99.90;;;;;;4933410;29;20047;-63
2023/08/10 12:23:39;;;;;;;3.63;2.20;;;22.30;99.90;;;;;;4933569;29;20058;-63
2023/08/10 12:26:05;;;;;;;3.42;2.20;;;22.30;99.90;;;;;;4933358;29;20062;-63
2023/08/10 12:28:32;;;;;;;3.22;2.15;;;22.40;99.90;;;;;;4931984;29;20389;-63
2023/08/10 12:31:05;;;;;;;3.17;1.95;;;22.50;99.90;;;;;;4933880;29;20043;-63
2023/08/10 12:33:32;;;;;;;2.58;1.85;;;22.50;99.90;;;;;;4936647;29;20493;-63
2023/08/10 12:35:59;;;;;;;4.88;2.75;;;22.40;99.90;;;;;;4937235;29;20043;-63
2023/08/10 12:38:26;;;;;;;4.60;2.25;;;22.50;99.90;;;;;;4932083;29;20036;-63
2023/08/10 12:40:53;;;;;;;2.40;2.20;;;22.50;99.90;;;;;;4937240;29;20043;-63
2023/08/10 12:43:21;;;;;;;5.50;2.40;;;22.60;99.90;;;;;;4934635;29;20135;-63
2023/08/10 12:45:47;;;;;;;5.00;2.45;;;22.60;99.90;;;;;;4937179;29;20040;-63
2023/08/10 12:48:14;;;;;;;7.80;2.80;;;22.60;99.90;;;;;;4933730;29;20181;-63
2023/08/10 12:50:41;;;;;;;3.63;2.45;;;22.60;99.90;;;;;;4934172;29;20043;-63